Terminal Aerodrome Forecast
Issued by NWS Sterling, VA

Current Version | Previous Version | Text Only | Print | Product List | Glossary On
Versions: 1 2 3 4 5 6 7 8 9 10 11 12 13
000
FTUS41 KLWX 250536
TAFMRB
TAF
KMRB 250536Z 2506/2606 16005KT P6SM FEW150 BKN250
     FM251100 18004KT P6SM BKN060
     FM251600 24007KT P6SM BKN060
     FM260000 VRB03KT P6SM FEW060 SCT200=

USA.gov is the U.S. government's official web portal to all federal, state and local government web resources and services.